Time;durP1;ratioP1;P1;durP2;ratioP2;P2;SDS_P1;SDS_P2;PMS_P1;PMS_P2;Temp;Humidity;BMP_temperature;BMP_pressure;BME280_temperature;BME280_humidity;BME280_pressure;Samples;Min_cycle;Max_cycle;Signal;HPM_P1;HPM_P2
2023/03/17 00:00:29;;;;;;;;;4.00;3.75;;;;;10.10;53.13;99254.25;5116418;28;9525;-60
2023/03/17 00:02:58;;;;;;;;;2.50;2.50;;;;;10.13;52.76;99244.16;5115759;28;8826;-61
2023/03/17 00:05:26;;;;;;;;;0.75;0.50;;;;;10.16;52.88;99238.56;5115913;28;8840;-62
2023/03/17 00:07:54;;;;;;;;;3.00;1.00;;;;;10.18;52.96;99241.91;5116107;28;8844;-62
2023/03/17 00:10:21;;;;;;;;;0.25;0.25;;;;;10.17;53.02;99239.41;5116286;28;8847;-60
2023/03/17 00:12:49;;;;;;;;;0.00;0.00;;;;;10.16;53.13;99249.22;5115592;28;8928;-62
2023/03/17 00:15:17;;;;;;;;;2.00;1.00;;;;;10.17;53.23;99250.88;5115978;28;8874;-63
2023/03/17 00:17:46;;;;;;;;;3.00;1.00;;;;;10.22;53.13;99238.03;5115677;28;8820;-60
2023/03/17 00:20:14;;;;;;;;;1.00;1.00;;;;;10.25;52.39;99232.41;5115603;28;8840;-62
2023/03/17 00:22:41;;;;;;;;;1.00;1.00;;;;;10.25;52.80;99240.41;5115198;28;8832;-61
2023/03/17 00:25:09;;;;;;;;;1.00;1.00;;;;;10.29;52.74;99233.84;5114527;28;8871;-62
2023/03/17 00:27:37;;;;;;;;;1.00;1.00;;;;;10.32;52.70;99225.56;5114358;28;8812;-62
2023/03/17 00:30:07;;;;;;;;;1.50;1.50;;;;;10.34;51.79;99225.44;5118172;28;8832;-62
2023/03/17 00:32:36;;;;;;;;;1.00;0.00;;;;;10.35;51.98;99222.66;5114104;28;9504;-61
2023/03/17 00:35:05;;;;;;;;;1.00;1.00;;;;;10.38;52.16;99233.00;5115960;28;8980;-62
2023/03/17 00:37:32;;;;;;;;;4.00;3.00;;;;;10.43;51.88;99227.25;5115391;28;8855;-62
2023/03/17 00:40:00;;;;;;;;;1.00;1.00;;;;;10.43;51.81;99238.75;5115013;28;8840;-59
2023/03/17 00:42:28;;;;;;;;;3.00;3.00;;;;;10.45;51.89;99239.47;5114987;28;8820;-62
2023/03/17 00:44:56;;;;;;;;;0.50;0.50;;;;;10.46;52.15;99240.31;5115795;28;8812;-62
2023/03/17 00:47:24;;;;;;;;;0.00;0.00;;;;;10.46;51.87;99246.47;5114853;28;8837;-62
2023/03/17 00:49:52;;;;;;;;;3.00;2.50;;;;;10.48;52.16;99241.81;5115481;28;8861;-62
2023/03/17 00:52:20;;;;;;;;;2.00;1.00;;;;;10.50;52.12;99255.88;5115521;28;8836;-61
2023/03/17 00:54:47;;;;;;;;;1.00;1.00;;;;;10.49;52.31;99267.50;5115826;28;8842;-62
2023/03/17 00:57:15;;;;;;;;;1.00;1.00;;;;;10.46;52.23;99282.91;5115491;28;8835;-62
2023/03/17 00:59:43;;;;;;;;;1.00;1.00;;;;;10.38;53.14;99286.22;5114923;28;8836;-62
2023/03/17 01:02:10;;;;;;;;;1.00;1.00;;;;;10.33;52.99;99288.44;5115493;28;9523;-63
2023/03/17 01:04:39;;;;;;;;;1.00;1.00;;;;;10.27;52.48;99285.50;5115793;28;8933;-62
2023/03/17 01:07:10;;;;;;;;;1.50;1.50;;;;;10.26;53.31;99292.63;5115087;28;8835;-62
2023/03/17 01:09:38;;;;;;;;;1.00;1.00;;;;;10.27;52.51;99297.00;5115024;28;8933;-63
2023/03/17 01:12:06;;;;;;;;;4.00;3.00;;;;;10.25;53.19;99288.28;5114772;28;8840;-61
2023/03/17 01:14:34;;;;;;;;;3.00;3.00;;;;;10.19;53.05;99286.19;5117581;28;8824;-62
2023/03/17 01:17:04;;;;;;;;;0.25;0.00;;;;;10.12;53.08;99284.19;5119440;28;9576;-60
2023/03/17 01:19:32;;;;;;;;;0.00;0.00;;;;;10.05;52.98;99269.75;5118028;28;9517;-62
2023/03/17 01:22:00;;;;;;;;;3.00;2.50;;;;;9.96;53.82;99259.91;5118720;28;8824;-62
2023/03/17 01:24:28;;;;;;;;;3.50;3.50;;;;;9.87;53.98;99255.41;5118949;28;9528;-62
2023/03/17 01:26:55;;;;;;;;;3.00;3.00;;;;;9.79;54.18;99258.72;5119011;28;8889;-62
2023/03/17 01:29:23;;;;;;;;;2.50;1.00;;;;;9.75;54.41;99259.09;5118713;28;8820;-62
2023/03/17 01:31:51;;;;;;;;;0.00;0.00;;;;;9.72;53.82;99254.06;5118887;28;8828;-62
2023/03/17 01:34:19;;;;;;;;;0.50;0.50;;;;;9.71;54.29;99247.91;5118948;28;8824;-61
2023/03/17 01:36:47;;;;;;;;;2.50;2.00;;;;;9.74;54.04;99242.34;5118815;28;8827;-62
2023/03/17 01:39:15;;;;;;;;;3.00;3.00;;;;;9.78;53.49;99243.72;5117962;28;8851;-59
2023/03/17 01:41:44;;;;;;;;;0.00;0.00;;;;;9.79;53.65;99237.44;5118269;28;8864;-61
2023/03/17 01:44:12;;;;;;;;;0.75;0.75;;;;;9.77;54.21;99252.69;5120227;28;8851;-61
2023/03/17 01:46:39;;;;;;;;;0.75;0.75;;;;;9.72;54.48;99254.91;5117971;28;8842;-60
2023/03/17 01:49:08;;;;;;;;;0.25;0.00;;;;;9.69;54.23;99252.53;5118360;28;8848;-63
2023/03/17 01:51:36;;;;;;;;;0.00;0.00;;;;;9.70;54.43;99245.38;5118425;28;8839;-60
2023/03/17 01:54:05;;;;;;;;;3.50;3.50;;;;;9.72;54.43;99259.38;5118784;28;8824;-62
2023/03/17 01:56:33;;;;;;;;;3.00;1.00;;;;;9.74;54.29;99242.34;5118598;28;8840;-60
2023/03/17 01:59:01;;;;;;;;;3.25;3.25;;;;;9.78;54.08;99238.41;5117780;28;8824;-61
2023/03/17 02:01:29;;;;;;;;;1.00;1.00;;;;;9.80;54.12;99230.31;5117634;28;8824;-62
2023/03/17 02:03:57;;;;;;;;;3.00;1.00;;;;;9.80;54.00;99231.13;5118046;28;8835;-60
2023/03/17 02:06:25;;;;;;;;;2.25;2.00;;;;;9.78;53.89;99224.31;5118119;28;8877;-62
2023/03/17 02:08:52;;;;;;;;;1.00;0.25;;;;;9.83;53.98;99214.06;5118039;28;8925;-62
2023/03/17 02:11:21;;;;;;;;;2.00;2.00;;;;;9.91;53.71;99211.59;5117446;28;8839;-62
2023/03/17 02:13:48;;;;;;;;;1.00;1.00;;;;;9.94;53.15;99212.16;5118316;28;8828;-63
2023/03/17 02:16:16;;;;;;;;;2.00;2.00;;;;;9.92;53.22;99219.44;5118450;28;8819;-62
2023/03/17 02:18:44;;;;;;;;;2.50;1.00;;;;;9.93;53.18;99210.47;5118208;28;8891;-60
2023/03/17 02:21:12;;;;;;;;;2.50;1.00;;;;;9.91;53.11;99214.25;5118073;28;9609;-62
2023/03/17 02:23:40;;;;;;;;;1.00;1.00;;;;;9.87;53.49;99211.00;5117728;28;8832;-62
2023/03/17 02:26:07;;;;;;;;;0.75;0.75;;;;;9.83;53.54;99196.31;5117586;28;8910;-62
2023/03/17 02:28:35;;;;;;;;;2.00;2.00;;;;;9.79;53.63;99196.72;5118067;28;8804;-62
2023/03/17 02:31:03;;;;;;;;;0.50;0.50;;;;;9.73;53.59;99183.97;5117819;28;8852;-62
2023/03/17 02:33:31;;;;;;;;;1.00;1.00;;;;;9.70;54.53;99179.75;5117613;28;8992;-62
2023/03/17 02:35:59;;;;;;;;;1.00;1.00;;;;;9.72;53.81;99174.31;5118184;28;8832;-62
2023/03/17 02:38:27;;;;;;;;;2.50;2.50;;;;;9.69;54.34;99174.56;5117759;28;8839;-62
2023/03/17 02:40:55;;;;;;;;;1.00;0.50;;;;;9.64;54.52;99172.31;5117215;28;8836;-62
2023/03/17 02:43:24;;;;;;;;;2.00;2.00;;;;;9.57;54.40;99181.81;5117971;28;8828;-60
2023/03/17 02:45:51;;;;;;;;;1.00;0.25;;;;;9.47;54.43;99180.09;5117797;28;8905;-62
2023/03/17 02:48:19;;;;;;;;;3.00;2.00;;;;;9.33;55.18;99173.31;5117280;28;8917;-61
2023/03/17 02:50:47;;;;;;;;;0.50;0.50;;;;;9.24;54.74;99167.97;5116977;28;8815;-62
2023/03/17 02:53:14;;;;;;;;;0.50;0.50;;;;;9.21;55.37;99173.56;5117274;28;8840;-61
2023/03/17 02:55:42;;;;;;;;;0.00;0.00;;;;;9.15;55.39;99174.94;5116467;28;8916;-62
2023/03/17 02:58:10;;;;;;;;;0.25;0.25;;;;;9.11;55.87;99175.31;5117436;28;8836;-61
2023/03/17 03:00:39;;;;;;;;;0.00;0.00;;;;;9.07;55.77;99177.41;5117808;28;8941;-60
2023/03/17 03:03:07;;;;;;;;;0.00;0.00;;;;;9.08;55.60;99180.88;5117068;28;8832;-62
2023/03/17 03:05:35;;;;;;;;;2.50;2.50;;;;;9.17;55.57;99177.44;5117020;28;8819;-57
2023/03/17 03:08:03;;;;;;;;;4.00;3.25;;;;;9.23;55.32;99176.91;5117285;28;8851;-59
2023/03/17 03:10:31;;;;;;;;;1.50;0.50;;;;;9.27;55.40;99179.16;5116888;28;8847;-57
2023/03/17 03:12:59;;;;;;;;;2.50;2.50;;;;;9.34;54.91;99171.53;5117017;28;8920;-59
2023/03/17 03:15:26;;;;;;;;;0.75;0.75;;;;;9.33;54.76;99167.19;5116583;28;8912;-60
2023/03/17 03:17:54;;;;;;;;;2.50;2.00;;;;;9.35;55.22;99165.22;5117006;28;8822;-58
2023/03/17 03:20:22;;;;;;;;;1.00;1.00;;;;;9.40;54.89;99178.94;5116625;28;8912;-58
2023/03/17 03:22:55;;;;;;;;;1.00;1.00;;;;;9.41;54.93;99176.16;5116851;28;8827;-58
2023/03/17 03:25:23;;;;;;;;;0.00;0.00;;;;;9.38;55.14;99180.91;5116728;28;9481;-58
2023/03/17 03:27:51;;;;;;;;;0.75;0.75;;;;;9.32;55.40;99170.78;5116761;28;8898;-59
2023/03/17 03:30:19;;;;;;;;;1.00;1.00;;;;;9.25;54.97;99185.56;5117010;28;8808;-58
2023/03/17 03:32:48;;;;;;;;;1.00;1.00;;;;;9.11;56.04;99189.44;5117138;28;8828;-58
2023/03/17 03:35:15;;;;;;;;;3.00;3.00;;;;;9.01;56.11;99193.84;5116634;28;8898;-56
2023/03/17 03:37:43;;;;;;;;;1.50;0.00;;;;;8.89;56.05;99186.91;5116356;28;8831;-57
2023/03/17 03:40:11;;;;;;;;;2.00;2.00;;;;;8.81;56.08;99192.03;5116478;28;9586;-59
2023/03/17 03:42:39;;;;;;;;;1.00;1.00;;;;;8.77;56.75;99195.94;5116521;28;8820;-58
2023/03/17 03:45:07;;;;;;;;;3.00;2.33;;;;;8.75;56.62;99189.88;5118095;28;8886;-58
2023/03/17 03:47:34;;;;;;;;;1.50;1.50;;;;;8.74;56.20;99185.56;5116437;28;8820;-60
2023/03/17 03:50:02;;;;;;;;;0.75;0.75;;;;;8.77;56.19;99182.66;5116779;28;8876;-59
2023/03/17 03:52:29;;;;;;;;;1.00;1.00;;;;;8.79;56.20;99175.41;5117077;28;9599;-58
2023/03/17 03:54:57;;;;;;;;;2.50;2.50;;;;;8.78;56.41;99164.91;5116269;28;8831;-60
2023/03/17 03:57:25;;;;;;;;;1.00;1.00;;;;;8.70;56.66;99173.53;5116380;28;8820;-59
2023/03/17 03:59:53;;;;;;;;;4.00;3.00;;;;;8.65;56.42;99161.63;5115946;28;8839;-60
2023/03/17 04:02:20;;;;;;;;;3.00;1.50;;;;;8.59;56.84;99160.31;5116169;28;8832;-60
2023/03/17 04:04:48;;;;;;;;;1.50;1.50;;;;;8.51;57.22;99162.75;5115956;28;8939;-59
2023/03/17 04:07:16;;;;;;;;;3.00;3.00;;;;;8.42;56.98;99165.34;5115655;28;8826;-59
2023/03/17 04:09:45;;;;;;;;;4.00;3.00;;;;;8.31;57.52;99158.31;5116179;28;8852;-60
2023/03/17 04:12:12;;;;;;;;;3.00;1.50;;;;;8.28;57.72;99155.88;5116170;28;8844;-60
2023/03/17 04:14:41;;;;;;;;;3.00;1.00;;;;;8.23;57.53;99158.09;5116370;28;8820;-59
2023/03/17 04:17:08;;;;;;;;;2.50;2.50;;;;;8.18;57.43;99154.94;5116244;28;8832;-60
2023/03/17 04:19:37;;;;;;;;;1.00;1.00;;;;;8.05;58.08;99154.25;5116144;28;8848;-58
2023/03/17 04:22:05;;;;;;;;;0.25;0.00;;;;;7.89;58.17;99159.13;5116470;28;9618;-59
2023/03/17 04:24:33;;;;;;;;;1.00;1.00;;;;;7.77;58.36;99165.41;5114279;28;8828;-58
2023/03/17 04:27:01;;;;;;;;;1.50;1.50;;;;;7.74;58.41;99165.66;5115610;28;8830;-58
2023/03/17 04:29:31;;;;;;;;;0.75;0.75;;;;;7.78;58.36;99161.81;5115402;28;8836;-58
2023/03/17 04:32:00;;;;;;;;;1.50;0.25;;;;;7.88;57.81;99162.75;5115540;28;8924;-57
2023/03/17 04:34:27;;;;;;;;;2.50;1.00;;;;;7.96;58.04;99160.31;5115366;28;8846;-57
2023/03/17 04:36:55;;;;;;;;;3.00;3.00;;;;;8.04;58.14;99160.53;5115954;28;9480;-59
2023/03/17 04:39:23;;;;;;;;;1.00;1.00;;;;;8.13;57.81;99157.13;5115391;28;8807;-59
2023/03/17 04:41:50;;;;;;;;;0.75;0.75;;;;;8.20;57.62;99147.72;5115944;28;8832;-58
2023/03/17 04:44:18;;;;;;;;;1.00;1.00;;;;;8.28;57.12;99152.41;5116430;28;8844;-58
2023/03/17 04:46:46;;;;;;;;;2.60;2.60;;;;;8.30;56.86;99153.94;5115587;28;8832;-60
2023/03/17 04:49:14;;;;;;;;;1.00;1.00;;;;;8.29;57.55;99154.91;5116929;28;8840;-59
2023/03/17 04:51:41;;;;;;;;;1.00;0.75;;;;;8.27;57.23;99159.50;5119446;28;8831;-60
2023/03/17 04:54:10;;;;;;;;;0.25;0.25;;;;;8.18;57.40;99154.09;5119561;28;8920;-59
2023/03/17 04:56:37;;;;;;;;;1.00;1.00;;;;;8.08;57.84;99154.03;5118984;28;8830;-59
2023/03/17 04:59:05;;;;;;;;;1.00;1.00;;;;;8.06;58.04;99149.81;5119491;28;8843;-60
2023/03/17 05:01:33;;;;;;;;;1.00;1.00;;;;;8.04;57.97;99157.03;5118932;28;8843;-58
2023/03/17 05:04:00;;;;;;;;;2.50;2.00;;;;;8.07;57.93;99162.91;5119681;28;8862;-60
2023/03/17 05:06:28;;;;;;;;;3.25;2.00;;;;;8.09;57.90;99166.31;5119500;28;8836;-62
2023/03/17 05:08:56;;;;;;;;;0.50;0.00;;;;;8.11;57.80;99164.34;5119279;28;8832;-61
2023/03/17 05:11:23;;;;;;;;;1.00;1.00;;;;;8.13;57.81;99159.75;5119343;28;9739;-63
2023/03/17 05:13:51;;;;;;;;;1.00;1.00;;;;;8.14;57.70;99164.09;5119302;28;8846;-61
2023/03/17 05:16:19;;;;;;;;;2.00;2.00;;;;;8.14;57.66;99164.09;5119241;28;8820;-61
2023/03/17 05:18:47;;;;;;;;;2.00;1.00;;;;;8.17;57.92;99160.34;5118762;28;8866;-61
2023/03/17 05:21:15;;;;;;;;;1.50;1.00;;;;;8.23;57.41;99160.75;5118912;28;8859;-60
2023/03/17 05:23:43;;;;;;;;;3.00;3.00;;;;;8.32;57.68;99151.16;5119023;28;8850;-62
2023/03/17 05:26:10;;;;;;;;;0.50;0.50;;;;;8.39;57.36;99133.78;5119090;28;8844;-59
2023/03/17 05:28:38;;;;;;;;;3.00;3.00;;;;;8.46;56.82;99133.16;5118850;28;8860;-62
2023/03/17 05:31:05;;;;;;;;;1.00;1.00;;;;;8.54;56.67;99146.59;5118432;28;8832;-60
2023/03/17 05:33:37;;;;;;;;;1.00;0.50;;;;;8.61;56.72;99141.63;5117961;28;8840;-60
2023/03/17 05:36:05;;;;;;;;;1.00;1.00;;;;;8.67;56.58;99141.94;5117436;28;8856;-60
2023/03/17 05:38:34;;;;;;;;;1.50;1.50;;;;;8.80;55.88;99147.88;5117201;28;8824;-59
2023/03/17 05:41:02;;;;;;;;;1.00;1.00;;;;;8.94;55.86;99152.88;5117621;28;8852;-59
2023/03/17 05:43:30;;;;;;;;;2.00;1.50;;;;;9.01;56.08;99140.75;5119101;28;8867;-58
2023/03/17 05:45:58;;;;;;;;;0.50;0.50;;;;;9.05;56.04;99152.78;5118277;28;8831;-58
2023/03/17 05:48:26;;;;;;;;;0.50;0.50;;;;;9.10;55.39;99150.56;5118029;28;8824;-59
2023/03/17 05:50:54;;;;;;;;;1.50;1.00;;;;;9.14;55.63;99135.22;5118107;28;8958;-59
2023/03/17 05:53:22;;;;;;;;;2.00;2.00;;;;;9.15;55.93;99135.09;5117511;28;8824;-58
2023/03/17 05:55:51;;;;;;;;;2.50;1.00;;;;;9.18;55.92;99139.31;5117651;28;8831;-58
2023/03/17 05:58:19;;;;;;;;;0.50;0.50;;;;;9.20;55.79;99130.19;5116301;28;8815;-58
2023/03/17 06:00:49;;;;;;;;;1.00;1.00;;;;;9.23;55.68;99129.09;5116402;28;8872;-58
2023/03/17 06:03:16;;;;;;;;;3.00;3.00;;;;;9.23;55.37;99124.63;5116553;28;8831;-59
2023/03/17 06:05:44;;;;;;;;;1.00;1.00;;;;;9.28;55.40;99133.03;5116848;28;8846;-58
2023/03/17 06:08:12;;;;;;;;;0.00;0.00;;;;;9.31;55.17;99129.25;5116820;28;8823;-60
2023/03/17 06:10:41;;;;;;;;;1.00;1.00;;;;;9.32;55.15;99113.19;5117268;28;9805;-59
2023/03/17 06:13:09;;;;;;;;;3.00;3.00;;;;;9.36;55.40;99119.09;5116767;28;8831;-58
2023/03/17 06:15:37;;;;;;;;;1.00;1.00;;;;;9.38;55.33;99111.81;5115878;28;8819;-59
2023/03/17 06:18:05;;;;;;;;;1.00;1.00;;;;;9.42;55.30;99107.94;5116246;28;9489;-58
2023/03/17 06:20:32;;;;;;;;;3.00;3.00;;;;;9.44;55.19;99116.59;5116706;28;8852;-59
2023/03/17 06:23:00;;;;;;;;;1.00;1.00;;;;;9.48;55.05;99118.84;5117125;28;8852;-58
2023/03/17 06:25:32;;;;;;;;;0.00;0.00;;;;;9.49;54.89;99128.50;5115977;28;8874;-61
2023/03/17 06:28:01;;;;;;;;;2.00;2.00;;;;;9.53;55.20;99124.59;5114851;28;8815;-59
2023/03/17 06:30:29;;;;;;;;;0.00;0.00;;;;;9.56;54.75;99123.50;5114959;28;8836;-59
2023/03/17 06:32:57;;;;;;;;;2.00;2.00;;;;;9.58;54.64;99119.69;5114564;28;8836;-61
2023/03/17 06:35:25;;;;;;;;;1.00;1.00;;;;;9.61;54.96;99114.13;5114470;28;8828;-59
2023/03/17 06:37:53;;;;;;;;;1.00;1.00;;;;;9.66;54.89;99114.53;5114234;28;8927;-61
2023/03/17 06:40:21;;;;;;;;;1.00;1.00;;;;;9.71;54.47;99120.31;5114469;28;8868;-59
2023/03/17 06:42:49;;;;;;;;;2.50;1.00;;;;;9.75;54.57;99123.53;5115089;28;8912;-58
2023/03/17 06:45:17;;;;;;;;;3.00;3.00;;;;;9.77;54.40;99135.72;5115199;28;8969;-58
2023/03/17 06:47:45;;;;;;;;;1.00;1.00;;;;;9.80;54.20;99140.75;5114806;28;8854;-58
2023/03/17 06:50:13;;;;;;;;;2.00;2.00;;;;;9.81;54.13;99129.13;5113806;28;8855;-59
2023/03/17 06:52:41;;;;;;;;;1.00;1.00;;;;;9.83;54.72;99135.16;5113441;28;8820;-59
2023/03/17 06:55:10;;;;;;;;;3.00;3.00;;;;;9.85;54.39;99141.19;5113812;28;8870;-61
2023/03/17 06:57:38;;;;;;;;;2.00;0.75;;;;;9.89;54.38;99139.94;5113566;28;8956;-58
2023/03/17 07:00:06;;;;;;;;;3.00;3.00;;;;;9.93;54.62;99140.50;5113295;28;8824;-59
2023/03/17 07:02:34;;;;;;;;;3.25;3.25;;;;;9.98;54.54;99141.78;5112468;28;8851;-58
2023/03/17 07:05:03;;;;;;;;;2.00;2.00;;;;;10.02;54.22;99143.16;5112856;28;8846;-58
2023/03/17 07:07:31;;;;;;;;;3.00;2.50;;;;;10.09;54.35;99135.53;5112357;28;8844;-61
2023/03/17 07:10:00;;;;;;;;;3.75;2.50;;;;;10.16;53.84;99136.66;5111548;28;8850;-57
2023/03/17 07:12:28;;;;;;;;;3.00;3.00;;;;;10.24;53.75;99132.28;5112486;28;8850;-58
2023/03/17 07:14:56;;;;;;;;;0.00;0.00;;;;;10.30;53.46;99129.06;5113607;28;8827;-61
2023/03/17 07:17:24;;;;;;;;;2.00;2.00;;;;;10.39;53.83;99133.53;5113061;28;8824;-60
2023/03/17 07:19:52;;;;;;;;;3.75;3.25;;;;;10.46;53.83;99134.66;5112531;28;8966;-60
2023/03/17 07:22:20;;;;;;;;;1.50;1.50;;;;;10.56;53.23;99130.16;5113130;28;8859;-60
2023/03/17 07:24:47;;;;;;;;;1.50;1.00;;;;;10.66;53.18;99132.81;5113822;28;8832;-60
2023/03/17 07:27:17;;;;;;;;;3.00;2.50;;;;;10.76;53.16;99131.00;5112963;28;8832;-61
2023/03/17 07:29:47;;;;;;;;;0.00;0.00;;;;;10.86;53.04;99127.31;5112428;28;8950;-61
2023/03/17 07:32:15;;;;;;;;;1.00;0.75;;;;;10.95;52.41;99110.50;5111304;28;8836;-61
2023/03/17 07:34:43;;;;;;;;;1.00;1.00;;;;;11.06;52.47;99123.63;5112854;28;8827;-61
2023/03/17 07:37:11;;;;;;;;;2.50;1.00;;;;;11.19;52.66;99120.63;5113015;28;8875;-58
2023/03/17 07:39:39;;;;;;;;;3.00;3.00;;;;;11.31;52.25;99128.28;5112780;28;8823;-61
2023/03/17 07:42:20;;;;;;;;;3.50;3.50;;;;;11.44;52.11;99125.31;5113008;28;8958;-59
2023/03/17 07:44:48;;;;;;;;;1.00;1.00;;;;;11.60;51.52;99117.53;5112669;28;8824;-59
2023/03/17 07:47:16;;;;;;;;;3.50;3.00;;;;;11.72;51.51;99125.19;5112427;28;8874;-58
2023/03/17 07:49:44;;;;;;;;;1.00;1.00;;;;;11.88;51.57;99133.38;5113646;28;8994;-60
2023/03/17 07:52:12;;;;;;;;;3.00;3.00;;;;;12.04;51.38;99137.06;5112283;28;8844;-60
2023/03/17 07:54:40;;;;;;;;;3.00;2.50;;;;;12.20;50.96;99123.88;5113159;28;8836;-59
2023/03/17 07:57:09;;;;;;;;;1.00;1.00;;;;;12.33;50.51;99127.00;5113190;28;8890;-61
2023/03/17 07:59:38;;;;;;;;;3.75;3.50;;;;;12.47;50.81;99122.94;5112783;28;8881;-60
2023/03/17 08:02:07;;;;;;;;;3.00;3.00;;;;;12.65;49.83;99126.44;5113237;28;8828;-61
2023/03/17 08:04:35;;;;;;;;;3.25;3.00;;;;;12.79;50.00;99125.88;5111067;28;8843;-60
2023/03/17 08:07:05;;;;;;;;;1.50;1.50;;;;;12.89;49.84;99115.91;5111871;28;8852;-59
2023/03/17 08:09:33;;;;;;;;;2.00;2.00;;;;;12.98;49.40;99120.38;5112689;28;8836;-60
2023/03/17 08:12:00;;;;;;;;;0.50;0.50;;;;;13.03;49.75;99102.00;5112072;28;8823;-60
2023/03/17 08:14:29;;;;;;;;;3.00;2.50;;;;;13.16;49.37;99102.44;5112643;28;8839;-59
2023/03/17 08:16:57;;;;;;;;;2.00;1.50;;;;;13.31;49.26;99100.84;5112480;28;8918;-59
2023/03/17 08:19:25;;;;;;;;;2.50;2.50;;;;;13.49;49.11;99098.91;5111288;28;8852;-61
2023/03/17 08:21:53;;;;;;;;;1.00;1.00;;;;;13.62;49.36;99093.94;5109789;28;8869;-61
2023/03/17 08:24:21;;;;;;;;;0.00;0.00;;;;;13.71;48.93;99090.28;5114665;28;8848;-59
2023/03/17 08:26:49;;;;;;;;;3.00;3.00;;;;;13.77;48.82;99103.03;5115901;28;8840;-60
2023/03/17 08:29:17;;;;;;;;;1.00;1.00;;;;;13.83;49.11;99105.06;5115462;28;8855;-60
2023/03/17 08:31:45;;;;;;;;;2.50;2.50;;;;;13.88;48.90;99095.53;5115593;28;8831;-61
2023/03/17 08:34:13;;;;;;;;;2.50;1.00;;;;;13.92;48.94;99104.06;5116256;28;8823;-61
2023/03/17 08:36:41;;;;;;;;;3.50;3.00;;;;;13.92;48.82;99107.59;5116783;28;9299;-62
2023/03/17 08:39:09;;;;;;;;;1.00;1.00;;;;;13.89;49.17;99110.59;5116082;28;8847;-59
2023/03/17 08:41:37;;;;;;;;;3.00;3.00;;;;;13.86;48.72;99102.91;5115237;28;8978;-59
2023/03/17 08:44:07;;;;;;;;;0.75;0.75;;;;;13.84;48.85;99114.75;5117253;28;8836;-61
2023/03/17 08:46:35;;;;;;;;;3.00;1.00;;;;;13.87;49.17;99122.44;5116084;28;8827;-61
2023/03/17 08:49:03;;;;;;;;;1.00;1.00;;;;;13.97;49.23;99120.50;5115239;28;9021;-59
2023/03/17 08:51:31;;;;;;;;;2.50;2.50;;;;;14.10;48.48;99129.72;5116131;28;8832;-60
2023/03/17 08:53:59;;;;;;;;;1.50;1.50;;;;;14.18;48.30;99124.41;5116771;28;8828;-59
2023/03/17 08:56:27;;;;;;;;;2.00;2.00;;;;;14.27;48.68;99122.59;5115898;28;8866;-61
2023/03/17 08:58:55;;;;;;;;;3.00;3.00;;;;;14.32;48.70;99113.06;5115355;28;8850;-61
2023/03/17 09:01:23;;;;;;;;;2.00;1.00;;;;;14.44;48.17;99126.97;5117695;28;8832;-58
2023/03/17 09:03:51;;;;;;;;;1.00;1.00;;;;;14.53;48.20;99128.63;5117154;28;8847;-61
2023/03/17 09:06:19;;;;;;;;;1.00;1.00;;;;;14.61;48.32;99120.59;5116301;28;9137;-61
2023/03/17 09:08:49;;;;;;;;;1.00;1.00;;;;;14.66;47.72;99128.97;5115525;28;9539;-59
2023/03/17 09:11:17;;;;;;;;;3.00;3.00;;;;;14.67;47.72;99136.88;5113499;28;9182;-61
2023/03/17 09:13:45;;;;;;;;;1.00;1.00;;;;;14.72;47.60;99139.84;5112960;28;8824;-61
2023/03/17 09:16:14;;;;;;;;;4.00;3.25;;;;;14.81;48.46;99143.38;5113703;28;8831;-61
2023/03/17 09:18:42;;;;;;;;;1.00;1.00;;;;;14.85;48.21;99137.53;5112868;28;9498;-61
2023/03/17 09:21:10;;;;;;;;;3.00;3.00;;;;;14.89;47.73;99129.97;5113537;28;8852;-60
2023/03/17 09:23:38;;;;;;;;;3.00;3.00;;;;;14.92;47.98;99138.53;5113746;28;8820;-60
2023/03/17 09:26:06;;;;;;;;;1.00;1.00;;;;;14.94;47.85;99127.63;5113859;28;8847;-61
2023/03/17 09:28:34;;;;;;;;;0.50;0.50;;;;;14.94;48.17;99123.09;5115444;28;8847;-60
2023/03/17 09:31:02;;;;;;;;;3.25;3.00;;;;;15.01;47.63;99121.41;5113828;28;8848;-61
2023/03/17 09:33:30;;;;;;;;;1.00;1.00;;;;;15.12;47.72;99117.53;5115458;28;8906;-60
2023/03/17 09:35:58;;;;;;;;;3.00;3.00;;;;;15.23;47.66;99115.34;5114637;28;8966;-61
2023/03/17 09:38:26;;;;;;;;;3.00;3.00;;;;;15.38;47.58;99119.00;5115151;28;8835;-59
2023/03/17 09:40:55;;;;;;;;;0.00;0.00;;;;;15.54;47.37;99112.78;5115805;28;9655;-60
2023/03/17 09:43:23;;;;;;;;;3.00;3.00;;;;;15.64;47.08;99113.38;5116775;28;8839;-60
2023/03/17 09:45:51;;;;;;;;;3.50;3.50;;;;;15.75;46.72;99113.84;5115746;28;9267;-61
2023/03/17 09:48:18;;;;;;;;;2.50;2.50;;;;;15.84;46.57;99115.47;5116000;28;8835;-59
2023/03/17 09:50:46;;;;;;;;;1.00;1.00;;;;;15.92;46.93;99114.59;5115575;28;8843;-59
2023/03/17 09:53:15;;;;;;;;;4.50;4.50;;;;;16.02;46.35;99124.13;5115939;28;8859;-61
2023/03/17 09:55:42;;;;;;;;;1.50;1.50;;;;;16.09;46.28;99126.94;5115683;28;8831;-59
2023/03/17 09:58:10;;;;;;;;;4.00;4.00;;;;;16.17;46.11;99132.25;5116297;28;8819;-58
2023/03/17 10:00:38;;;;;;;;;3.00;3.00;;;;;16.23;46.19;99131.56;5115739;28;9190;-59
2023/03/17 10:03:07;;;;;;;;;3.75;3.25;;;;;16.32;46.03;99128.63;5113482;28;8858;-61
2023/03/17 10:05:35;;;;;;;;;1.00;1.00;;;;;16.47;45.28;99119.63;5113697;28;8828;-61
2023/03/17 10:08:04;;;;;;;;;1.00;1.00;;;;;16.67;45.08;99120.84;5113061;28;8846;-59
2023/03/17 10:10:42;;;;;;;;;3.20;3.20;;;;;17.01;44.34;99121.19;5113532;28;8835;-60
2023/03/17 10:13:09;;;;;;;;;4.00;3.00;;;;;17.41;43.94;99114.59;5113957;28;8816;-61
2023/03/17 10:15:39;;;;;;;;;1.50;1.00;;;;;17.74;43.04;99113.19;5113176;28;8851;-61
2023/03/17 10:18:08;;;;;;;;;3.00;3.00;;;;;18.27;42.78;99093.91;5112301;28;8844;-60
2023/03/17 10:20:36;;;;;;;;;0.00;0.00;;;;;18.66;42.18;99099.75;5111319;28;8835;-61
2023/03/17 10:23:04;;;;;;;;;4.20;3.40;;;;;18.99;42.19;99093.59;5111807;28;8816;-61
2023/03/17 10:25:32;;;;;;;;;1.00;1.00;;;;;19.26;41.67;99098.19;5112197;28;8839;-60
2023/03/17 10:28:02;;;;;;;;;1.80;1.80;;;;;19.50;41.17;99088.78;5111904;28;8985;-62
2023/03/17 10:30:30;;;;;;;;;1.00;1.00;;;;;19.55;41.05;99081.75;5111847;28;9036;-62
2023/03/17 10:32:58;;;;;;;;;3.20;3.20;;;;;19.58;41.43;99084.03;5112477;28;8851;-60
2023/03/17 10:35:26;;;;;;;;;3.00;3.00;;;;;19.58;41.07;99081.34;5114126;28;8855;-60
2023/03/17 10:37:54;;;;;;;;;3.00;3.00;;;;;19.70;41.04;99087.00;5111921;28;8982;-60
2023/03/17 10:40:41;;;;;;;;;3.80;3.00;;;;;20.03;40.74;99088.81;5112516;28;9713;-59
2023/03/17 10:43:10;;;;;;;;;2.00;2.00;;;;;20.33;39.92;99092.88;5122577;27;9000;-62
2023/03/17 10:45:39;;;;;;;;;1.40;1.40;;;;;20.65;39.33;99092.13;5134935;27;8833;-60
2023/03/17 10:48:11;;;;;;;;;1.40;1.40;;;;;20.87;39.59;99085.50;5133324;27;8849;-60
2023/03/17 10:50:40;;;;;;;;;2.40;1.60;;;;;21.07;39.21;99080.91;5133021;27;8838;-60
2023/03/17 10:53:08;;;;;;;;;1.00;1.00;;;;;21.15;39.12;99067.16;5132429;27;8822;-59
2023/03/17 10:55:36;;;;;;;;;4.00;2.00;;;;;21.01;39.53;99071.75;5133138;27;8860;-62
2023/03/17 10:58:04;;;;;;;;;2.00;2.00;;;;;20.62;39.34;99068.16;5132995;27;8942;-61
2023/03/17 11:00:34;;;;;;;;;4.60;4.00;;;;;20.35;40.45;99066.47;5132702;27;8826;-60
2023/03/17 11:03:02;;;;;;;;;1.60;1.60;;;;;20.38;40.26;99074.19;5132853;27;8845;-62
2023/03/17 11:05:30;;;;;;;;;2.40;2.40;;;;;20.58;39.77;99076.91;5132106;27;8837;-61
2023/03/17 11:07:58;;;;;;;;;1.60;1.00;;;;;20.68;40.30;99064.63;5132323;27;8898;-61
2023/03/17 11:10:28;;;;;;;;;3.60;3.60;;;;;20.79;39.99;99064.00;5132786;27;9510;-61
2023/03/17 11:12:57;;;;;;;;;2.00;1.00;;;;;20.74;40.08;99039.47;5133062;27;8838;-60
2023/03/17 11:15:26;;;;;;;;;2.00;1.40;;;;;20.64;40.34;99043.63;5134279;27;9515;-62
2023/03/17 11:17:54;;;;;;;;;1.60;1.00;;;;;20.74;40.28;99036.75;5132471;27;8853;-60
2023/03/17 11:20:22;;;;;;;;;1.60;1.60;;;;;20.85;40.52;99034.25;5132108;27;8830;-62
2023/03/17 11:22:50;;;;;;;;;1.60;1.40;;;;;20.98;40.04;99046.97;5132162;27;8817;-62
2023/03/17 11:25:18;;;;;;;;;4.00;4.00;;;;;20.98;39.35;99036.13;5133490;27;8837;-61
2023/03/17 11:27:46;;;;;;;;;2.00;2.00;;;;;20.97;39.14;99037.19;5132114;27;8850;-62
2023/03/17 11:30:15;;;;;;;;;2.00;2.00;;;;;21.26;38.53;99042.13;5131470;27;8846;-59
2023/03/17 11:32:43;;;;;;;;;4.00;4.00;;;;;21.73;38.16;99033.66;5131709;27;8822;-62
2023/03/17 11:35:11;;;;;;;;;1.00;1.00;;;;;22.08;37.46;99034.97;5131170;27;8822;-60
2023/03/17 11:37:39;;;;;;;;;2.00;2.00;;;;;22.62;37.03;99035.25;5130629;27;8837;-59
2023/03/17 11:40:07;;;;;;;;;2.00;2.00;;;;;23.04;36.57;99035.31;5129801;27;9547;-60
2023/03/17 11:42:38;;;;;;;;;2.00;2.00;;;;;23.22;36.11;99043.50;5132021;27;8844;-60
2023/03/17 11:45:07;;;;;;;;;2.00;2.00;;;;;23.44;35.42;99033.88;5131950;27;8849;-59
2023/03/17 11:47:36;;;;;;;;;2.00;2.00;;;;;23.43;36.02;99032.22;5128589;27;8960;-60
2023/03/17 11:50:04;;;;;;;;;3.20;2.00;;;;;23.55;35.94;99033.13;5130912;27;8934;-61